createdAt,value
2022-08-22T00:07:25.000Z,58.39
2022-08-22T00:12:25.000Z,55.06
2022-08-22T00:17:24.000Z,56.93
2022-08-22T00:22:24.000Z,55.62
2022-08-22T00:27:24.000Z,49.76
2022-08-22T00:32:25.000Z,49.1
2022-08-22T00:37:24.000Z,50.01
2022-08-22T00:42:25.000Z,48.6
2022-08-22T00:47:24.000Z,49.2
2022-08-22T00:52:24.000Z,49.45
2022-08-22T00:57:24.000Z,46.7
2022-08-22T01:02:24.000Z,47.81
2022-08-22T01:07:25.000Z,47.23
2022-08-22T01:12:24.000Z,48.46
2022-08-22T01:17:24.000Z,48.75
2022-08-22T01:22:24.000Z,47.71
2022-08-22T01:27:25.000Z,47.78
2022-08-22T01:32:24.000Z,48.76
2022-08-22T01:37:24.000Z,47.4
2022-08-22T01:42:24.000Z,47.59
2022-08-22T01:47:24.000Z,47.15
2022-08-22T01:52:25.000Z,47.78
2022-08-22T01:57:24.000Z,46.84
2022-08-22T02:02:25.000Z,49.02
2022-08-22T02:07:24.000Z,48.44
2022-08-22T02:12:24.000Z,48.69
2022-08-22T02:17:25.000Z,48.67
2022-08-22T02:22:24.000Z,49.48
2022-08-22T02:32:25.000Z,51.02
2022-08-22T02:37:25.000Z,51.4
2022-08-22T02:42:25.000Z,50.58
2022-08-22T02:47:24.000Z,49.69
2022-08-22T02:52:25.000Z,49.62
2022-08-22T02:57:24.000Z,50.7
2022-08-22T03:02:24.000Z,50.77
2022-08-22T03:07:24.000Z,50.6
2022-08-22T03:12:25.000Z,52.68
2022-08-22T03:17:25.000Z,56.09
2022-08-22T03:22:25.000Z,57.56
2022-08-22T03:27:24.000Z,61.03
2022-08-22T03:32:24.000Z,64.57
2022-08-22T03:37:25.000Z,67.93
2022-08-22T03:42:25.000Z,70.43
2022-08-22T03:47:25.000Z,71.86
2022-08-22T03:52:25.000Z,72.61
2022-08-22T03:57:24.000Z,72.49
2022-08-22T04:02:25.000Z,72.92
2022-08-22T04:07:25.000Z,74.93
2022-08-22T04:12:24.000Z,78.66
2022-08-22T04:17:24.000Z,82.04
2022-08-22T04:22:24.000Z,83.32
2022-08-22T04:27:25.000Z,86.52
2022-08-22T04:32:24.000Z,90.91
2022-08-22T04:37:24.000Z,93.12
2022-08-22T04:42:24.000Z,98.5
2022-08-22T04:47:24.000Z,104.02
2022-08-22T04:52:24.000Z,108.73
2022-08-22T04:57:24.000Z,111.5
2022-08-22T05:02:25.000Z,112.5
2022-08-22T05:07:25.000Z,116.66
2022-08-22T05:12:24.000Z,119.53
2022-08-22T05:17:25.000Z,118.56
2022-08-22T05:22:24.000Z,120.54
2022-08-22T05:27:24.000Z,121.77
2022-08-22T05:32:25.000Z,122.49
2022-08-22T05:37:24.000Z,123.75
2022-08-22T05:42:24.000Z,123.36
2022-08-22T05:47:24.000Z,123.45
2022-08-22T05:52:24.000Z,124.62
2022-08-22T05:57:25.000Z,123.82
2022-08-22T06:02:25.000Z,118.95
2022-08-22T06:07:25.000Z,117.12
2022-08-22T06:12:24.000Z,112.94
2022-08-22T06:17:24.000Z,108.12
2022-08-22T06:22:24.000Z,105.37
2022-08-22T06:27:24.000Z,104.49
2022-08-22T06:32:25.000Z,101.96
2022-08-22T06:37:25.000Z,100.3
2022-08-22T06:42:24.000Z,98.12
2022-08-22T06:47:24.000Z,94.17
2022-08-22T06:52:24.000Z,90.32
2022-08-22T06:57:24.000Z,91.74
2022-08-22T07:02:25.000Z,91.61
2022-08-22T07:07:24.000Z,92.54
2022-08-22T07:12:24.000Z,91.81
2022-08-22T07:17:24.000Z,91.87
2022-08-22T07:22:24.000Z,94.62
2022-08-22T07:27:24.000Z,93.74
2022-08-22T07:32:24.000Z,92.79
2022-08-22T07:37:24.000Z,95.22
2022-08-22T07:42:25.000Z,91.21
2022-08-22T07:47:24.000Z,93.84
2022-08-22T07:52:24.000Z,94.98
2022-08-22T07:57:24.000Z,91.22
2022-08-22T08:02:24.000Z,91.53
2022-08-22T08:07:24.000Z,92.78
2022-08-22T08:12:24.000Z,94.74
2022-08-22T08:17:24.000Z,94.76
2022-08-22T08:22:24.000Z,90.1
2022-08-22T08:27:25.000Z,87.12
2022-08-22T08:32:24.000Z,90.64
2022-08-22T08:37:24.000Z,91.45
2022-08-22T08:42:25.000Z,91.2
2022-08-22T08:47:24.000Z,91.32
2022-08-22T08:52:24.000Z,83.36
2022-08-22T08:57:25.000Z,79.52
2022-08-22T09:02:24.000Z,71.66
2022-08-22T09:07:24.000Z,62.63
2022-08-22T09:12:25.000Z,64.1
2022-08-22T09:17:24.000Z,72.7
2022-08-22T09:22:24.000Z,68.16
2022-08-22T09:27:25.000Z,53.14
2022-08-22T09:32:24.000Z,44.74
2022-08-22T09:37:24.000Z,39.37
2022-08-22T09:42:24.000Z,37.38
2022-08-22T09:47:24.000Z,40.63
2022-08-22T09:52:25.000Z,40.98
2022-08-22T09:57:24.000Z,34.65
2022-08-22T10:02:25.000Z,32.32
2022-08-22T10:07:24.000Z,32.74
2022-08-22T10:12:24.000Z,32.61
2022-08-22T10:17:24.000Z,34.54
2022-08-22T10:22:24.000Z,33.64
2022-08-22T10:27:25.000Z,33.85
2022-08-22T10:32:25.000Z,33.67
2022-08-22T10:37:24.000Z,37.48
2022-08-22T10:42:24.000Z,36.48
2022-08-22T10:47:24.000Z,32.49
2022-08-22T10:52:24.000Z,33.12
2022-08-22T10:57:24.000Z,31.92
2022-08-22T11:02:24.000Z,25.99
2022-08-22T11:07:24.000Z,27.22
2022-08-22T11:12:25.000Z,31.03
2022-08-22T11:17:24.000Z,30.58
2022-08-22T11:22:24.000Z,26.97
2022-08-22T11:32:24.000Z,28.88
2022-08-22T11:37:24.000Z,22.13
2022-08-22T11:42:24.000Z,20.03
2022-08-22T11:47:25.000Z,20.46
2022-08-22T11:52:25.000Z,19.86
2022-08-22T11:57:24.000Z,13.64
2022-08-22T12:02:25.000Z,11.83
2022-08-22T12:07:24.000Z,12.57
2022-08-22T12:12:25.000Z,12.86
2022-08-22T12:17:24.000Z,12.45
2022-08-22T12:22:24.000Z,10.32
2022-08-22T12:27:24.000Z,9.65
2022-08-22T12:32:25.000Z,9.83
2022-08-22T12:37:24.000Z,8.71
2022-08-22T12:42:25.000Z,7.81
2022-08-22T12:47:25.000Z,7.01
2022-08-22T12:57:24.000Z,4.81
2022-08-22T13:02:25.000Z,3.93
2022-08-22T13:07:24.000Z,4.01
2022-08-22T13:12:24.000Z,4.24
2022-08-22T13:17:24.000Z,3.8
2022-08-22T13:22:25.000Z,3.7
2022-08-22T13:27:24.000Z,3.79
2022-08-22T13:32:25.000Z,3.85
2022-08-22T13:37:25.000Z,3.81
2022-08-22T13:42:24.000Z,3.78
2022-08-22T13:47:25.000Z,3.8
2022-08-22T13:52:24.000Z,3.73
2022-08-22T13:57:25.000Z,3.87
2022-08-22T14:02:24.000Z,3.92
2022-08-22T14:07:25.000Z,3.88
2022-08-22T14:12:24.000Z,3.81
2022-08-22T14:17:24.000Z,3.8
2022-08-22T14:22:25.000Z,3.66
2022-08-22T14:27:25.000Z,3.76
2022-08-22T14:32:24.000Z,3.83
2022-08-22T14:37:24.000Z,3.99
2022-08-22T14:42:24.000Z,3.96
2022-08-22T14:47:24.000Z,4.09
2022-08-22T14:52:25.000Z,3.81
2022-08-22T14:57:24.000Z,3.85
2022-08-22T15:02:24.000Z,3.91
2022-08-22T15:07:25.000Z,3.99
2022-08-22T15:12:24.000Z,4.39
2022-08-22T15:17:25.000Z,5.13
2022-08-22T15:22:24.000Z,5.48
2022-08-22T15:27:24.000Z,5.51
2022-08-22T15:32:25.000Z,5.51
2022-08-22T15:37:25.000Z,5.42
2022-08-22T15:42:24.000Z,5.48
2022-08-22T15:47:25.000Z,5.63
2022-08-22T15:52:24.000Z,5.74
2022-08-22T15:57:25.000Z,5.7
2022-08-22T16:02:24.000Z,5.72
2022-08-22T16:07:25.000Z,5.82
2022-08-22T16:12:24.000Z,6.22
2022-08-22T16:17:24.000Z,6.92
2022-08-22T16:22:24.000Z,7.19
2022-08-22T16:27:25.000Z,7.55
2022-08-22T16:32:24.000Z,7.88
2022-08-22T16:37:24.000Z,7.98
2022-08-22T16:42:24.000Z,8.14
2022-08-22T16:47:24.000Z,8.31
2022-08-22T16:52:24.000Z,8.5
2022-08-22T16:57:24.000Z,8.44
2022-08-22T17:02:25.000Z,8.34
2022-08-22T17:07:25.000Z,8.51
2022-08-22T17:12:24.000Z,8.88
2022-08-22T17:17:25.000Z,9.13
2022-08-22T17:22:25.000Z,9.73
2022-08-22T17:27:24.000Z,9.97
2022-08-22T17:32:24.000Z,9.72
2022-08-22T17:37:24.000Z,9.64
2022-08-22T17:47:25.000Z,9.3
2022-08-22T17:52:24.000Z,10.15
2022-08-22T17:57:25.000Z,10.61
2022-08-22T18:02:24.000Z,11.19
2022-08-22T18:07:24.000Z,12.03
2022-08-22T18:12:25.000Z,13.12
2022-08-22T18:17:24.000Z,14.15
2022-08-22T18:22:24.000Z,14.75
2022-08-22T18:27:24.000Z,16.22
2022-08-22T18:32:24.000Z,18.37
2022-08-22T18:37:24.000Z,19.69
2022-08-22T18:42:25.000Z,20.63
2022-08-22T18:47:24.000Z,20.14
2022-08-22T18:52:24.000Z,21.27
2022-08-22T18:57:25.000Z,22.08
2022-08-22T19:02:25.000Z,22.97
2022-08-22T19:07:25.000Z,25.5
2022-08-22T19:12:25.000Z,25.98
2022-08-22T19:17:24.000Z,27.03
2022-08-22T19:27:24.000Z,30.51
2022-08-22T19:32:24.000Z,31.37
2022-08-22T19:37:25.000Z,34.41
2022-08-22T19:42:24.000Z,35.09
2022-08-22T19:47:24.000Z,36.24
2022-08-22T19:52:25.000Z,36.67
2022-08-22T19:57:25.000Z,37.07
2022-08-22T20:02:24.000Z,37.35
2022-08-22T20:07:24.000Z,35.65
2022-08-22T20:12:24.000Z,34.68
2022-08-22T20:17:25.000Z,34.6
2022-08-22T20:22:25.000Z,34.81
2022-08-22T20:27:24.000Z,35.24
2022-08-22T20:32:24.000Z,33.44
2022-08-22T20:37:24.000Z,33.21
2022-08-22T20:42:24.000Z,34.92
2022-08-22T20:47:24.000Z,37.46
2022-08-22T20:57:25.000Z,37.71
2022-08-22T21:02:24.000Z,38.19
2022-08-22T21:07:24.000Z,39.33
2022-08-22T21:12:24.000Z,40.13
2022-08-22T21:17:25.000Z,36.19
2022-08-22T21:22:24.000Z,37.18
2022-08-22T21:27:25.000Z,36.3
2022-08-22T21:32:24.000Z,36.16
2022-08-22T21:37:24.000Z,35.15
2022-08-22T21:42:25.000Z,35.38
2022-08-22T21:47:24.000Z,36
2022-08-22T21:52:25.000Z,36.1
2022-08-22T21:57:24.000Z,34.96
2022-08-22T22:02:24.000Z,36.3
2022-08-22T22:07:24.000Z,36.72
2022-08-22T22:12:24.000Z,35.61
2022-08-22T22:17:25.000Z,34.88
2022-08-22T22:22:24.000Z,34.44
2022-08-22T22:27:24.000Z,34.71
2022-08-22T22:32:24.000Z,33.92
2022-08-22T22:37:24.000Z,32.95
2022-08-22T22:42:24.000Z,32.16
2022-08-22T22:47:24.000Z,31.4
2022-08-22T22:52:25.000Z,30.52
2022-08-22T22:57:24.000Z,29.61
2022-08-22T23:02:24.000Z,30.01
2022-08-22T23:07:24.000Z,30.75
2022-08-22T23:12:24.000Z,30.63
2022-08-22T23:17:24.000Z,30.21
2022-08-22T23:22:25.000Z,29.96
2022-08-22T23:27:24.000Z,29.73
2022-08-22T23:32:25.000Z,29.56
2022-08-22T23:37:24.000Z,30.71
2022-08-22T23:42:24.000Z,30.49
2022-08-22T23:47:25.000Z,30.42
2022-08-22T23:52:25.000Z,30.91
2022-08-22T23:57:24.000Z,30.43
